HOURLY OBS INDEX

062

Central Tablelands - north

MUDGEE AIRPORT AWS

Site: 062101
Alt: 471.0m
4km NE of MUDGEE


  Time     Wind        Temp  DP   Baro     Rain since   Rain past  Vis(m), Cloud(base in m), Weather
  local        km/h                         9am  last   hr   10m    
Sat 13:00    S  9/ 15  28.6  9.8  1016.6    0.0   0.0   0.0   0.0   10000 
Sat 13:30  NNE  7/ 13  28.6 12.1  1016.2    0.0   0.0   0.0   0.0   10000 
Sat 14:00   NE 15/ 20  29.0  9.7  1015.8    0.0   0.0   0.0   0.0   10000|SC2490 
Sat 14:30  WNW  7/ 13  29.7  9.8  1015.4    0.0   0.0   0.0   0.0   10000 
Sat 15:00  ESE  7/ 13  30.0  9.5  1014.7    0.0   0.0   0.0   0.0   10000|SC2760 
Sat 15:30  SSE 11/ 20  30.0  7.2  1014.3    0.0   0.0   0.0   0.0   10000|SC2820 
Sat 16:00  SSE 15/ 24  30.9  8.6  1013.9    0.0   0.0   0.0   0.0   10000|SC3000 
Sat 16:30  ESE 15/ 26  30.9  6.7  1013.6    0.0   0.0   0.0   0.0   10000|SC3000 
Sat 17:00  ESE 13/ 22  31.0  7.5  1013.4    0.0   0.0   0.0   0.0   10000|SC3150 
Sat 17:30  ENE 17/ 28  30.4  8.2  1013.3    0.0   0.0   0.0   0.0   10000|BR3000 
Sat 18:00  NNE 17/ 22  29.8  9.9  1013.3    0.0   0.0   0.0   0.0   10000|SC3000 

NULLO MOUNTAIN AWS

Site: 062100
Alt: 1130.0m
62km ESE of MUDGEE


  Time     Wind        Temp  DP   Baro     Rain since   Rain past  Vis(m), Cloud(base in m), Weather
  local        km/h                         9am  last   hr   10m    
Sat 13:00  ENE 11/ 24  22.7  7.3  ------    0.0   0.0   0.0   0.0   ----- 
Sat 13:30  ENE  7/ 20  23.3  7.4  ------    0.0   0.0   0.0   0.0   ----- 
Sat 14:00  ESE 11/ 17  23.6  6.4  ------    0.0   0.0   0.0   0.0   ----- 
Sat 14:30  ESE 11/ 20  23.8  6.6  ------    0.0   0.0   0.0   0.0   ----- 
Sat 15:00   SE 15/ 26  23.7  5.6  ------    0.0   0.0   0.0   0.0   ----- 
Sat 15:30  NNE  7/  9  23.9  7.1  ------    0.0   0.0   0.0   0.0   ----- 
Sat 16:00  ESE 11/ 26  23.2  6.5  ------    0.0   0.0   0.0   0.0   ----- 
Sat 16:30   SE 13/ 24  23.3  6.1  ------    0.0   0.0   0.0   0.0   ----- 
Sat 17:00  ESE 17/ 30  22.8  5.3  ------    0.0   0.0   0.0   0.0   ----- 
Sat 17:30  ESE 17/ 26  22.5  6.3  ------    0.0   0.0   0.0   0.0   ----- 
Sat 18:00    E 11/ 24  22.5  7.1  ------    0.0   0.0   0.0   0.0   -----